Nearby METAR Reports

 

KSLC - Salt Lake City, Utah, USA
Distance from station: W 19mi, 31km
Updated: Fri, 19-Jan-2018 7:39pm MST
Light snow, Mist, Overcast
Light snow, Mist, Overcast
 Wind from NNW
Wind: NNW 12 mph , 19 km/h
Temperature: 36°F , 2°C
Wind Chill: 28°F , -2°C
Dew Point: 34°F , 1°C
Humidity: 93%
Barometer: 29.95 inHg , 1014.2 hPa
Summary: Light snow, Mist
Clouds: Overcast
Visibility: 1 1/2 miles , 2 km
Cloud details: Overcast 800 ft
2018/01/20 02:39 KSLC 200239Z 34010KT 1 1/2SM -SN BR OVC008 02/01 A2995 RMK AO2 P0002 T00170006
K36U - Heber/Russ Mcdon, Utah, USA
Distance from station: SSE 21mi, 34km
Updated: Wed, 11-Oct-2017 6:50pm MDT
NOT Current
Clear
Clear
 Wind from SSW
Wind: SSW 10 mph , 17 km/h, Gust: 18 mph , 30 km/h
Temperature: 63°F , 17°C
Dew Point: 16°F , -9°C
Humidity: 16%
Barometer: 29.87 inHg , 1011.5 hPa
Clouds: Clear
Visibility: 10 miles , 16 km
2017/10/12 00:50 K36U 120050Z AUTO 21009G16KT 10SM CLR 17/M09 A2987 RMK AO2
 
KHIF - Hill Afb/Ogden, Utah, USA
Distance from station: NW 31mi, 50km
Updated: Fri, 19-Jan-2018 6:58pm MST
Light snow, Mist, Overcast
Light snow, Mist, Overcast
 Wind from NNW
Wind: NNW 18 mph , 30 km/h, Gust: 25 mph , 41 km/h
Temperature: 32°F , 0°C
Wind Chill: 21°F , -6°C
Dew Point: 30°F , -1°C
Humidity: 93%
Barometer: 29.90 inHg , 1012.5 hPa
Summary: Light snow, Mist
Clouds: Overcast
Visibility: 1 1/2 miles , 2 km
Cloud details: Overcast 500 ft
2018/01/20 01:58 KHIF 200158Z 33016G22KT 1 1/2SM R14/4000FT -SN BR OVC005 00/M01 A2990 RMK PK WND 34029/28 SLP120 MIDFLD WND 32018KT P0001 T10051006
KOGD - Ogden, Utah, USA
Distance from station: NW 37mi, 60km
Updated: Fri, 19-Jan-2018 7:40pm MST
Light snow, Mist, Overcast
Light snow, Mist, Overcast
 Wind from NNW
Wind: NNW 13 mph , 20 km/h
Temperature: 32°F , 0°C
Wind Chill: 22°F , -6°C
Dew Point: 30°F , -1°C
Humidity: 93%
Barometer: 29.93 inHg , 1013.5 hPa
Summary: Light snow, Mist
Clouds: Overcast
Visibility: 2 miles , 3 km
Cloud details: Few Clouds 500 ft
Overcast 1700 ft
2018/01/20 02:40 KOGD 200240Z 34011KT 2SM -SN BR FEW005 OVC017 00/M01 A2993 RMK AO2 P0000 T00001006
 
KPVU - Provo Muni, Utah, USA
Distance from station: S 38mi, 61km
Updated: Fri, 19-Jan-2018 6:56pm MST
Overcast
Overcast
 Wind from NW
Wind: NW 21 mph , 33 km/h
Temperature: 36°F , 2°C
Wind Chill: 25°F , -4°C
Dew Point: 30°F , -1°C
Humidity: 81%
Barometer: 29.89 inHg , 1012.2 hPa
Clouds: Overcast
Visibility: 10 miles , 16 km
Cloud details: Few Clouds 1000 ft
Overcast 8000 ft
2018/01/20 01:56 KPVU 200156Z 32018KT 10SM FEW010 OVC080 02/M01 A2989 RMK AO2 PK WND 32026/0058 SLP120 T00221011
KEVW - Evanston, Wyoming, USA
Distance from station: NE 46mi, 74km
Updated: Fri, 19-Jan-2018 7:35pm MST
Light snow, Mist, Overcast
Light snow, Mist, Overcast
 Wind from N
Wind: N 16 mph , 26 km/h
Temperature: 27°F , -3°C
Wind Chill: 15°F , -9°C
Dew Point: 27°F , -3°C
Humidity: 100%
Barometer: 29.83 inHg , 1010.2 hPa
Summary: Light snow, Mist
Clouds: Overcast
Visibility: 1 mile , 2 km
Cloud details: Overcast 900 ft
2018/01/20 02:35 KEVW 200235Z AUTO 36014KT 1SM -SN BR VV009 M03/M03 A2983 RMK AO2 P0000 T10331033